<?xml version="1.0" encoding="UTF-8" standalone="no" ?>
<gpx xmlns="http://www.topografix.com/GPX/1/1" xmlns:xsi="http://www.w3.org/2001/XMLSchema-instance" xsi:schemaLocation="http://www.topografix.com/GPX/1/1 http://www.topografix.com/GPX/1/1/gpx.xsd" version="1.1" creator="VisuGPX - https://www.visugpx.com">
  <metadata>
    <name>12339912-ALBRETSIENNE 3</name>
  </metadata>
  <trk>
    <name><![CDATA[12339912-ALBRETSIENNE 3]]></name>
    <trkseg>
      <trkpt lat="44.06348" lon="0.43007">
        <ele>125</ele>
        <time>2020-12-11T14:24:25Z</time>
      </trkpt>
      <trkpt lat="44.0629" lon="0.43247">
        <ele>123</ele>
        <time>2020-12-11T14:28:28Z</time>
      </trkpt>
      <trkpt lat="44.06265" lon="0.43355">
        <ele>122</ele>
        <time>2020-12-11T14:30:17Z</time>
      </trkpt>
      <trkpt lat="44.06229" lon="0.43333">
        <ele>120</ele>
        <time>2020-12-11T14:31:09Z</time>
      </trkpt>
      <trkpt lat="44.05998" lon="0.43216">
        <ele>105</ele>
        <time>2020-12-11T14:36:37Z</time>
      </trkpt>
      <trkpt lat="44.06007" lon="0.43173">
        <ele>105</ele>
        <time>2020-12-11T14:37:20Z</time>
      </trkpt>
      <trkpt lat="44.05881" lon="0.43129">
        <ele>113</ele>
        <time>2020-12-11T14:40:13Z</time>
      </trkpt>
      <trkpt lat="44.05894" lon="0.4309">
        <ele>114</ele>
        <time>2020-12-11T14:40:55Z</time>
      </trkpt>
      <trkpt lat="44.05857" lon="0.43083">
        <ele>115</ele>
        <time>2020-12-11T14:41:44Z</time>
      </trkpt>
      <trkpt lat="44.0563" lon="0.42994">
        <ele>131</ele>
        <time>2020-12-11T14:46:59Z</time>
      </trkpt>
      <trkpt lat="44.05574" lon="0.42969">
        <ele>131</ele>
        <time>2020-12-11T14:48:18Z</time>
      </trkpt>
      <trkpt lat="44.05478" lon="0.42945">
        <ele>122</ele>
        <time>2020-12-11T14:50:28Z</time>
      </trkpt>
      <trkpt lat="44.05255" lon="0.42928">
        <ele>108</ele>
        <time>2020-12-11T14:55:26Z</time>
      </trkpt>
      <trkpt lat="44.05221" lon="0.42972">
        <ele>107</ele>
        <time>2020-12-11T14:56:28Z</time>
      </trkpt>
      <trkpt lat="44.0519" lon="0.42985">
        <ele>107</ele>
        <time>2020-12-11T14:57:11Z</time>
      </trkpt>
      <trkpt lat="44.05127" lon="0.42983">
        <ele>109</ele>
        <time>2020-12-11T14:58:35Z</time>
      </trkpt>
      <trkpt lat="44.05019" lon="0.42969">
        <ele>114</ele>
        <time>2020-12-11T15:01:00Z</time>
      </trkpt>
      <trkpt lat="44.04753" lon="0.43035">
        <ele>126</ele>
        <time>2020-12-11T15:07:00Z</time>
      </trkpt>
      <trkpt lat="44.04718" lon="0.43048">
        <ele>124</ele>
        <time>2020-12-11T15:07:49Z</time>
      </trkpt>
      <trkpt lat="44.0461" lon="0.43081">
        <ele>117</ele>
        <time>2020-12-11T15:10:16Z</time>
      </trkpt>
      <trkpt lat="44.04474" lon="0.43133">
        <ele>109</ele>
        <time>2020-12-11T15:13:25Z</time>
      </trkpt>
      <trkpt lat="44.04444" lon="0.43164">
        <ele>108</ele>
        <time>2020-12-11T15:14:14Z</time>
      </trkpt>
      <trkpt lat="44.04386" lon="0.43142">
        <ele>110</ele>
        <time>2020-12-11T15:15:35Z</time>
      </trkpt>
      <trkpt lat="44.0435" lon="0.43118">
        <ele>113</ele>
        <time>2020-12-11T15:16:28Z</time>
      </trkpt>
      <trkpt lat="44.04211" lon="0.43136">
        <ele>124</ele>
        <time>2020-12-11T15:19:34Z</time>
      </trkpt>
      <trkpt lat="44.04169" lon="0.42965">
        <ele>130</ele>
        <time>2020-12-11T15:22:28Z</time>
      </trkpt>
      <trkpt lat="44.04146" lon="0.42905">
        <ele>133</ele>
        <time>2020-12-11T15:23:33Z</time>
      </trkpt>
      <trkpt lat="44.04091" lon="0.42873">
        <ele>135</ele>
        <time>2020-12-11T15:24:52Z</time>
      </trkpt>
      <trkpt lat="44.0408" lon="0.4257">
        <ele>135</ele>
        <time>2020-12-11T15:29:43Z</time>
      </trkpt>
      <trkpt lat="44.04069" lon="0.41955">
        <ele>144</ele>
        <time>2020-12-11T15:39:34Z</time>
      </trkpt>
      <trkpt lat="44.04084" lon="0.41693">
        <ele>151</ele>
        <time>2020-12-11T15:43:46Z</time>
      </trkpt>
      <trkpt lat="44.03978" lon="0.41581">
        <ele>143</ele>
        <time>2020-12-11T15:46:43Z</time>
      </trkpt>
      <trkpt lat="44.04026" lon="0.41387">
        <ele>154</ele>
        <time>2020-12-11T15:50:00Z</time>
      </trkpt>
      <trkpt lat="44.04121" lon="0.41062">
        <ele>152</ele>
        <time>2020-12-11T15:55:37Z</time>
      </trkpt>
      <trkpt lat="44.04169" lon="0.40813">
        <ele>164</ele>
        <time>2020-12-11T15:59:44Z</time>
      </trkpt>
      <trkpt lat="44.0419" lon="0.40753">
        <ele>162</ele>
        <time>2020-12-11T16:00:48Z</time>
      </trkpt>
      <trkpt lat="44.04209" lon="0.40439">
        <ele>164</ele>
        <time>2020-12-11T16:05:50Z</time>
      </trkpt>
      <trkpt lat="44.04279" lon="0.40207">
        <ele>164</ele>
        <time>2020-12-11T16:09:52Z</time>
      </trkpt>
      <trkpt lat="44.04292" lon="0.40102">
        <ele>164</ele>
        <time>2020-12-11T16:11:34Z</time>
      </trkpt>
      <trkpt lat="44.04278" lon="0.40022">
        <ele>160</ele>
        <time>2020-12-11T16:12:53Z</time>
      </trkpt>
      <trkpt lat="44.04282" lon="0.39992">
        <ele>158</ele>
        <time>2020-12-11T16:13:22Z</time>
      </trkpt>
      <trkpt lat="44.04334" lon="0.39936">
        <ele>155</ele>
        <time>2020-12-11T16:14:50Z</time>
      </trkpt>
      <trkpt lat="44.04197" lon="0.39954">
        <ele>151</ele>
        <time>2020-12-11T16:17:53Z</time>
      </trkpt>
      <trkpt lat="44.04157" lon="0.3995">
        <ele>150</ele>
        <time>2020-12-11T16:18:47Z</time>
      </trkpt>
      <trkpt lat="44.04151" lon="0.39786">
        <ele>135</ele>
        <time>2020-12-11T16:21:24Z</time>
      </trkpt>
      <trkpt lat="44.04159" lon="0.39724">
        <ele>131</ele>
        <time>2020-12-11T16:22:25Z</time>
      </trkpt>
      <trkpt lat="44.04166" lon="0.39573">
        <ele>119</ele>
        <time>2020-12-11T16:24:50Z</time>
      </trkpt>
      <trkpt lat="44.04094" lon="0.39508">
        <ele>114</ele>
        <time>2020-12-11T16:26:45Z</time>
      </trkpt>
      <trkpt lat="44.04032" lon="0.39392">
        <ele>111</ele>
        <time>2020-12-11T16:29:03Z</time>
      </trkpt>
      <trkpt lat="44.04032" lon="0.39318">
        <ele>109</ele>
        <time>2020-12-11T16:30:14Z</time>
      </trkpt>
      <trkpt lat="44.04037" lon="0.39208">
        <ele>105</ele>
        <time>2020-12-11T16:32:00Z</time>
      </trkpt>
      <trkpt lat="44.04042" lon="0.3914">
        <ele>105</ele>
        <time>2020-12-11T16:33:06Z</time>
      </trkpt>
      <trkpt lat="44.04045" lon="0.39098">
        <ele>105</ele>
        <time>2020-12-11T16:33:46Z</time>
      </trkpt>
      <trkpt lat="44.04037" lon="0.39024">
        <ele>105</ele>
        <time>2020-12-11T16:34:58Z</time>
      </trkpt>
      <trkpt lat="44.04083" lon="0.38925">
        <ele>97</ele>
        <time>2020-12-11T16:36:51Z</time>
      </trkpt>
      <trkpt lat="44.04096" lon="0.38838">
        <ele>90</ele>
        <time>2020-12-11T16:38:16Z</time>
      </trkpt>
      <trkpt lat="44.03974" lon="0.38743">
        <ele>81</ele>
        <time>2020-12-11T16:41:23Z</time>
      </trkpt>
      <trkpt lat="44.03927" lon="0.38669">
        <ele>78</ele>
        <time>2020-12-11T16:42:57Z</time>
      </trkpt>
      <trkpt lat="44.0387" lon="0.38527">
        <ele>84</ele>
        <time>2020-12-11T16:45:33Z</time>
      </trkpt>
      <trkpt lat="44.0377" lon="0.38301">
        <ele>105</ele>
        <time>2020-12-11T16:49:48Z</time>
      </trkpt>
      <trkpt lat="44.0373" lon="0.38196">
        <ele>106</ele>
        <time>2020-12-11T16:51:42Z</time>
      </trkpt>
      <trkpt lat="44.03704" lon="0.38106">
        <ele>106</ele>
        <time>2020-12-11T16:53:15Z</time>
      </trkpt>
      <trkpt lat="44.03528" lon="0.37915">
        <ele>104</ele>
        <time>2020-12-11T16:58:13Z</time>
      </trkpt>
      <trkpt lat="44.0359" lon="0.37783">
        <ele>103</ele>
        <time>2020-12-11T17:00:44Z</time>
      </trkpt>
      <trkpt lat="44.03648" lon="0.37632">
        <ele>99</ele>
        <time>2020-12-11T17:03:28Z</time>
      </trkpt>
      <trkpt lat="44.0362" lon="0.37579">
        <ele>93</ele>
        <time>2020-12-11T17:04:32Z</time>
      </trkpt>
      <trkpt lat="44.03619" lon="0.37532">
        <ele>89</ele>
        <time>2020-12-11T17:05:17Z</time>
      </trkpt>
      <trkpt lat="44.03537" lon="0.37444">
        <ele>91</ele>
        <time>2020-12-11T17:07:35Z</time>
      </trkpt>
      <trkpt lat="44.035" lon="0.37415">
        <ele>95</ele>
        <time>2020-12-11T17:08:32Z</time>
      </trkpt>
      <trkpt lat="44.03527" lon="0.37323">
        <ele>94</ele>
        <time>2020-12-11T17:10:07Z</time>
      </trkpt>
      <trkpt lat="44.03482" lon="0.37215">
        <ele>95</ele>
        <time>2020-12-11T17:12:07Z</time>
      </trkpt>
      <trkpt lat="44.03582" lon="0.37032">
        <ele>87</ele>
        <time>2020-12-11T17:15:47Z</time>
      </trkpt>
      <trkpt lat="44.03575" lon="0.36993">
        <ele>83</ele>
        <time>2020-12-11T17:16:26Z</time>
      </trkpt>
      <trkpt lat="44.03412" lon="0.36897">
        <ele>73</ele>
        <time>2020-12-11T17:20:22Z</time>
      </trkpt>
      <trkpt lat="44.03293" lon="0.36884">
        <ele>70</ele>
        <time>2020-12-11T17:23:01Z</time>
      </trkpt>
      <trkpt lat="44.03278" lon="0.36772">
        <ele>65</ele>
        <time>2020-12-11T17:24:51Z</time>
      </trkpt>
      <trkpt lat="44.03322" lon="0.36614">
        <ele>63</ele>
        <time>2020-12-11T17:27:33Z</time>
      </trkpt>
      <trkpt lat="44.0347" lon="0.3615">
        <ele>71</ele>
        <time>2020-12-11T17:35:40Z</time>
      </trkpt>
      <trkpt lat="44.03596" lon="0.3611">
        <ele>70</ele>
        <time>2020-12-11T17:38:33Z</time>
      </trkpt>
      <trkpt lat="44.03953" lon="0.36145">
        <ele>75</ele>
        <time>2020-12-11T17:46:30Z</time>
      </trkpt>
      <trkpt lat="44.03964" lon="0.361">
        <ele>77</ele>
        <time>2020-12-11T17:47:16Z</time>
      </trkpt>
      <trkpt lat="44.04048" lon="0.35988">
        <ele>81</ele>
        <time>2020-12-11T17:49:51Z</time>
      </trkpt>
      <trkpt lat="44.041" lon="0.35901">
        <ele>82</ele>
        <time>2020-12-11T17:51:40Z</time>
      </trkpt>
      <trkpt lat="44.04114" lon="0.35791">
        <ele>82</ele>
        <time>2020-12-11T17:53:27Z</time>
      </trkpt>
      <trkpt lat="44.04157" lon="0.35648">
        <ele>86</ele>
        <time>2020-12-11T17:55:55Z</time>
      </trkpt>
      <trkpt lat="44.04172" lon="0.35518">
        <ele>83</ele>
        <time>2020-12-11T17:58:02Z</time>
      </trkpt>
      <trkpt lat="44.04509" lon="0.34917">
        <ele>103</ele>
        <time>2020-12-11T18:10:13Z</time>
      </trkpt>
      <trkpt lat="44.04581" lon="0.34742">
        <ele>108</ele>
        <time>2020-12-11T18:13:26Z</time>
      </trkpt>
      <trkpt lat="44.04505" lon="0.34691">
        <ele>104</ele>
        <time>2020-12-11T18:15:19Z</time>
      </trkpt>
      <trkpt lat="44.04512" lon="0.3464">
        <ele>107</ele>
        <time>2020-12-11T18:16:09Z</time>
      </trkpt>
      <trkpt lat="44.04617" lon="0.34293">
        <ele>119</ele>
        <time>2020-12-11T18:22:10Z</time>
      </trkpt>
      <trkpt lat="44.04653" lon="0.34149">
        <ele>120</ele>
        <time>2020-12-11T18:24:36Z</time>
      </trkpt>
      <trkpt lat="44.047" lon="0.33949">
        <ele>126</ele>
        <time>2020-12-11T18:27:58Z</time>
      </trkpt>
      <trkpt lat="44.0464" lon="0.33858">
        <ele>125</ele>
        <time>2020-12-11T18:29:56Z</time>
      </trkpt>
      <trkpt lat="44.04625" lon="0.33793">
        <ele>124</ele>
        <time>2020-12-11T18:31:02Z</time>
      </trkpt>
      <trkpt lat="44.04563" lon="0.33664">
        <ele>121</ele>
        <time>2020-12-11T18:33:31Z</time>
      </trkpt>
      <trkpt lat="44.04586" lon="0.33425">
        <ele>111</ele>
        <time>2020-12-11T18:37:22Z</time>
      </trkpt>
      <trkpt lat="44.04387" lon="0.3338">
        <ele>123</ele>
        <time>2020-12-11T18:41:51Z</time>
      </trkpt>
      <trkpt lat="44.04429" lon="0.32962">
        <ele>119</ele>
        <time>2020-12-11T18:48:36Z</time>
      </trkpt>
      <trkpt lat="44.04481" lon="0.32623">
        <ele>110</ele>
        <time>2020-12-11T18:54:08Z</time>
      </trkpt>
      <trkpt lat="44.04517" lon="0.32413">
        <ele>103</ele>
        <time>2020-12-11T18:57:35Z</time>
      </trkpt>
      <trkpt lat="44.04455" lon="0.32361">
        <ele>104</ele>
        <time>2020-12-11T18:59:12Z</time>
      </trkpt>
      <trkpt lat="44.0449" lon="0.32255">
        <ele>99</ele>
        <time>2020-12-11T19:01:04Z</time>
      </trkpt>
      <trkpt lat="44.04474" lon="0.32192">
        <ele>94</ele>
        <time>2020-12-11T19:02:08Z</time>
      </trkpt>
      <trkpt lat="44.04523" lon="0.32063">
        <ele>88</ele>
        <time>2020-12-11T19:04:28Z</time>
      </trkpt>
      <trkpt lat="44.04561" lon="0.32047">
        <ele>85</ele>
        <time>2020-12-11T19:05:21Z</time>
      </trkpt>
      <trkpt lat="44.04475" lon="0.31991">
        <ele>78</ele>
        <time>2020-12-11T19:07:28Z</time>
      </trkpt>
      <trkpt lat="44.04269" lon="0.32377">
        <ele>75</ele>
        <time>2020-12-11T19:15:09Z</time>
      </trkpt>
      <trkpt lat="44.04277" lon="0.32399">
        <ele>80</ele>
        <time>2020-12-11T19:15:32Z</time>
      </trkpt>
      <trkpt lat="44.03927" lon="0.32686">
        <ele>80</ele>
        <time>2020-12-11T19:24:35Z</time>
      </trkpt>
      <trkpt lat="44.03908" lon="0.32657">
        <ele>76</ele>
        <time>2020-12-11T19:25:12Z</time>
      </trkpt>
      <trkpt lat="44.0388" lon="0.32615">
        <ele>72</ele>
        <time>2020-12-11T19:26:07Z</time>
      </trkpt>
      <trkpt lat="44.03843" lon="0.32648">
        <ele>72</ele>
        <time>2020-12-11T19:27:06Z</time>
      </trkpt>
      <trkpt lat="44.03535" lon="0.32633">
        <ele>78</ele>
        <time>2020-12-11T19:33:57Z</time>
      </trkpt>
      <trkpt lat="44.03351" lon="0.3253">
        <ele>75</ele>
        <time>2020-12-11T19:38:22Z</time>
      </trkpt>
      <trkpt lat="44.03255" lon="0.32482">
        <ele>74</ele>
        <time>2020-12-11T19:40:38Z</time>
      </trkpt>
      <trkpt lat="44.03181" lon="0.32492">
        <ele>77</ele>
        <time>2020-12-11T19:42:17Z</time>
      </trkpt>
      <trkpt lat="44.03133" lon="0.32512">
        <ele>80</ele>
        <time>2020-12-11T19:43:24Z</time>
      </trkpt>
      <trkpt lat="44.03076" lon="0.32505">
        <ele>79</ele>
        <time>2020-12-11T19:44:40Z</time>
      </trkpt>
      <trkpt lat="44.03062" lon="0.32552">
        <ele>84</ele>
        <time>2020-12-11T19:45:29Z</time>
      </trkpt>
      <trkpt lat="44.02968" lon="0.3244">
        <ele>78</ele>
        <time>2020-12-11T19:48:14Z</time>
      </trkpt>
      <trkpt lat="44.02971" lon="0.31964">
        <ele>69</ele>
        <time>2020-12-11T19:55:51Z</time>
      </trkpt>
      <trkpt lat="44.02979" lon="0.31847">
        <ele>67</ele>
        <time>2020-12-11T19:57:44Z</time>
      </trkpt>
      <trkpt lat="44.03077" lon="0.31598">
        <ele>77</ele>
        <time>2020-12-11T20:02:16Z</time>
      </trkpt>
      <trkpt lat="44.03161" lon="0.31336">
        <ele>86</ele>
        <time>2020-12-11T20:06:51Z</time>
      </trkpt>
      <trkpt lat="44.03034" lon="0.31212">
        <ele>88</ele>
        <time>2020-12-11T20:10:19Z</time>
      </trkpt>
      <trkpt lat="44.03195" lon="0.3091">
        <ele>95</ele>
        <time>2020-12-11T20:16:19Z</time>
      </trkpt>
      <trkpt lat="44.03158" lon="0.3078">
        <ele>95</ele>
        <time>2020-12-11T20:18:33Z</time>
      </trkpt>
      <trkpt lat="44.02984" lon="0.30707">
        <ele>99</ele>
        <time>2020-12-11T20:22:36Z</time>
      </trkpt>
      <trkpt lat="44.02879" lon="0.30687">
        <ele>102</ele>
        <time>2020-12-11T20:24:57Z</time>
      </trkpt>
      <trkpt lat="44.02813" lon="0.30681">
        <ele>101</ele>
        <time>2020-12-11T20:26:26Z</time>
      </trkpt>
      <trkpt lat="44.0285" lon="0.30542">
        <ele>106</ele>
        <time>2020-12-11T20:28:48Z</time>
      </trkpt>
      <trkpt lat="44.0284" lon="0.30436">
        <ele>112</ele>
        <time>2020-12-11T20:30:30Z</time>
      </trkpt>
      <trkpt lat="44.0292" lon="0.30176">
        <ele>118</ele>
        <time>2020-12-11T20:35:02Z</time>
      </trkpt>
      <trkpt lat="44.03012" lon="0.29814">
        <ele>133</ele>
        <time>2020-12-11T20:41:10Z</time>
      </trkpt>
      <trkpt lat="44.03164" lon="0.29512">
        <ele>122</ele>
        <time>2020-12-11T20:47:04Z</time>
      </trkpt>
      <trkpt lat="44.03228" lon="0.29437">
        <ele>117</ele>
        <time>2020-12-11T20:48:55Z</time>
      </trkpt>
      <trkpt lat="44.03417" lon="0.29225">
        <ele>104</ele>
        <time>2020-12-11T20:54:19Z</time>
      </trkpt>
      <trkpt lat="44.03317" lon="0.29121">
        <ele>106</ele>
        <time>2020-12-11T20:57:06Z</time>
      </trkpt>
      <trkpt lat="44.03264" lon="0.29067">
        <ele>107</ele>
        <time>2020-12-11T20:58:34Z</time>
      </trkpt>
      <trkpt lat="44.03258" lon="0.28964">
        <ele>107</ele>
        <time>2020-12-11T21:00:13Z</time>
      </trkpt>
      <trkpt lat="44.0328" lon="0.28942">
        <ele>105</ele>
        <time>2020-12-11T21:00:49Z</time>
      </trkpt>
      <trkpt lat="44.03191" lon="0.28748">
        <ele>107</ele>
        <time>2020-12-11T21:04:30Z</time>
      </trkpt>
      <trkpt lat="44.03208" lon="0.28705">
        <ele>106</ele>
        <time>2020-12-11T21:05:17Z</time>
      </trkpt>
      <trkpt lat="44.03214" lon="0.284">
        <ele>103</ele>
        <time>2020-12-11T21:10:10Z</time>
      </trkpt>
      <trkpt lat="44.03186" lon="0.28299">
        <ele>104</ele>
        <time>2020-12-11T21:11:54Z</time>
      </trkpt>
      <trkpt lat="44.03156" lon="0.28204">
        <ele>104</ele>
        <time>2020-12-11T21:13:33Z</time>
      </trkpt>
      <trkpt lat="44.03227" lon="0.28095">
        <ele>105</ele>
        <time>2020-12-11T21:15:54Z</time>
      </trkpt>
      <trkpt lat="44.03219" lon="0.28041">
        <ele>104</ele>
        <time>2020-12-11T21:16:47Z</time>
      </trkpt>
      <trkpt lat="44.03373" lon="0.27577">
        <ele>119</ele>
        <time>2020-12-11T21:24:57Z</time>
      </trkpt>
      <trkpt lat="44.03503" lon="0.27377">
        <ele>128</ele>
        <time>2020-12-11T21:29:16Z</time>
      </trkpt>
      <trkpt lat="44.03539" lon="0.27254">
        <ele>132</ele>
        <time>2020-12-11T21:31:23Z</time>
      </trkpt>
      <trkpt lat="44.03662" lon="0.26883">
        <ele>138</ele>
        <time>2020-12-11T21:37:55Z</time>
      </trkpt>
      <trkpt lat="44.03736" lon="0.26622">
        <ele>133</ele>
        <time>2020-12-11T21:42:25Z</time>
      </trkpt>
      <trkpt lat="44.03819" lon="0.26281">
        <ele>127</ele>
        <time>2020-12-11T21:48:10Z</time>
      </trkpt>
      <trkpt lat="44.03853" lon="0.26236">
        <ele>125</ele>
        <time>2020-12-11T21:49:13Z</time>
      </trkpt>
      <trkpt lat="44.04001" lon="0.26156">
        <ele>135</ele>
        <time>2020-12-11T21:52:44Z</time>
      </trkpt>
      <trkpt lat="44.04083" lon="0.26192">
        <ele>141</ele>
        <time>2020-12-11T21:54:39Z</time>
      </trkpt>
      <trkpt lat="44.04145" lon="0.2617">
        <ele>139</ele>
        <time>2020-12-11T21:56:05Z</time>
      </trkpt>
      <trkpt lat="44.04301" lon="0.26199">
        <ele>141</ele>
        <time>2020-12-11T21:59:35Z</time>
      </trkpt>
      <trkpt lat="44.04538" lon="0.25462">
        <ele>132</ele>
        <time>2020-12-11T22:12:29Z</time>
      </trkpt>
      <trkpt lat="44.04857" lon="0.25422">
        <ele>117</ele>
        <time>2020-12-11T22:19:37Z</time>
      </trkpt>
      <trkpt lat="44.04985" lon="0.25334">
        <ele>113</ele>
        <time>2020-12-11T22:22:47Z</time>
      </trkpt>
      <trkpt lat="44.04992" lon="0.25289">
        <ele>113</ele>
        <time>2020-12-11T22:23:31Z</time>
      </trkpt>
      <trkpt lat="44.05029" lon="0.25208">
        <ele>110</ele>
        <time>2020-12-11T22:25:03Z</time>
      </trkpt>
      <trkpt lat="44.05261" lon="0.25357">
        <ele>101</ele>
        <time>2020-12-11T22:30:44Z</time>
      </trkpt>
      <trkpt lat="44.05224" lon="0.25444">
        <ele>99</ele>
        <time>2020-12-11T22:32:21Z</time>
      </trkpt>
      <trkpt lat="44.05275" lon="0.25603">
        <ele>90</ele>
        <time>2020-12-11T22:35:08Z</time>
      </trkpt>
      <trkpt lat="44.05355" lon="0.25619">
        <ele>83</ele>
        <time>2020-12-11T22:36:56Z</time>
      </trkpt>
      <trkpt lat="44.05428" lon="0.25581">
        <ele>81</ele>
        <time>2020-12-11T22:38:40Z</time>
      </trkpt>
      <trkpt lat="44.05513" lon="0.25633">
        <ele>88</ele>
        <time>2020-12-11T22:40:44Z</time>
      </trkpt>
      <trkpt lat="44.05577" lon="0.2561">
        <ele>94</ele>
        <time>2020-12-11T22:42:12Z</time>
      </trkpt>
      <trkpt lat="44.05636" lon="0.25642">
        <ele>102</ele>
        <time>2020-12-11T22:43:37Z</time>
      </trkpt>
      <trkpt lat="44.05639" lon="0.25698">
        <ele>108</ele>
        <time>2020-12-11T22:44:31Z</time>
      </trkpt>
      <trkpt lat="44.05758" lon="0.2581">
        <ele>116</ele>
        <time>2020-12-11T22:47:42Z</time>
      </trkpt>
      <trkpt lat="44.05757" lon="0.25689">
        <ele>108</ele>
        <time>2020-12-11T22:49:38Z</time>
      </trkpt>
      <trkpt lat="44.05804" lon="0.25652">
        <ele>103</ele>
        <time>2020-12-11T22:50:50Z</time>
      </trkpt>
      <trkpt lat="44.05887" lon="0.25569">
        <ele>104</ele>
        <time>2020-12-11T22:53:07Z</time>
      </trkpt>
      <trkpt lat="44.05887" lon="0.25425">
        <ele>102</ele>
        <time>2020-12-11T22:55:25Z</time>
      </trkpt>
      <trkpt lat="44.05923" lon="0.25324">
        <ele>107</ele>
        <time>2020-12-11T22:57:13Z</time>
      </trkpt>
      <trkpt lat="44.06007" lon="0.25252">
        <ele>110</ele>
        <time>2020-12-11T22:59:25Z</time>
      </trkpt>
      <trkpt lat="44.05997" lon="0.25185">
        <ele>104</ele>
        <time>2020-12-11T23:00:30Z</time>
      </trkpt>
      <trkpt lat="44.06112" lon="0.25104">
        <ele>100</ele>
        <time>2020-12-11T23:03:22Z</time>
      </trkpt>
      <trkpt lat="44.06195" lon="0.25086">
        <ele>100</ele>
        <time>2020-12-11T23:05:14Z</time>
      </trkpt>
      <trkpt lat="44.06232" lon="0.25031">
        <ele>96</ele>
        <time>2020-12-11T23:06:27Z</time>
      </trkpt>
      <trkpt lat="44.06315" lon="0.25005">
        <ele>100</ele>
        <time>2020-12-11T23:08:20Z</time>
      </trkpt>
      <trkpt lat="44.06478" lon="0.24839">
        <ele>87</ele>
        <time>2020-12-11T23:12:50Z</time>
      </trkpt>
      <trkpt lat="44.06597" lon="0.24751">
        <ele>81</ele>
        <time>2020-12-11T23:15:49Z</time>
      </trkpt>
      <trkpt lat="44.06788" lon="0.24607">
        <ele>72</ele>
        <time>2020-12-11T23:20:39Z</time>
      </trkpt>
      <trkpt lat="44.06982" lon="0.24781">
        <ele>79</ele>
        <time>2020-12-11T23:25:47Z</time>
      </trkpt>
      <trkpt lat="44.07035" lon="0.24777">
        <ele>78</ele>
        <time>2020-12-11T23:26:58Z</time>
      </trkpt>
      <trkpt lat="44.07204" lon="0.24598">
        <ele>66</ele>
        <time>2020-12-11T23:31:42Z</time>
      </trkpt>
      <trkpt lat="44.07499" lon="0.24629">
        <ele>60</ele>
        <time>2020-12-11T23:38:16Z</time>
      </trkpt>
      <trkpt lat="44.07473" lon="0.2468">
        <ele>60</ele>
        <time>2020-12-11T23:39:16Z</time>
      </trkpt>
      <trkpt lat="44.07559" lon="0.24645">
        <ele>61</ele>
        <time>2020-12-11T23:41:16Z</time>
      </trkpt>
      <trkpt lat="44.07642" lon="0.24488">
        <ele>64</ele>
        <time>2020-12-11T23:44:23Z</time>
      </trkpt>
      <trkpt lat="44.07685" lon="0.24394">
        <ele>71</ele>
        <time>2020-12-11T23:46:10Z</time>
      </trkpt>
      <trkpt lat="44.07636" lon="0.24362">
        <ele>71</ele>
        <time>2020-12-11T23:47:22Z</time>
      </trkpt>
      <trkpt lat="44.07647" lon="0.24283">
        <ele>76</ele>
        <time>2020-12-11T23:48:39Z</time>
      </trkpt>
      <trkpt lat="44.0758" lon="0.24178">
        <ele>78</ele>
        <time>2020-12-11T23:50:54Z</time>
      </trkpt>
      <trkpt lat="44.07564" lon="0.24026">
        <ele>80</ele>
        <time>2020-12-11T23:53:21Z</time>
      </trkpt>
      <trkpt lat="44.07583" lon="0.23755">
        <ele>101</ele>
        <time>2020-12-11T23:57:42Z</time>
      </trkpt>
      <trkpt lat="44.0761" lon="0.23437">
        <ele>118</ele>
        <time>2020-12-12T00:02:49Z</time>
      </trkpt>
      <trkpt lat="44.07686" lon="0.23194">
        <ele>122</ele>
        <time>2020-12-12T00:07:03Z</time>
      </trkpt>
      <trkpt lat="44.07719" lon="0.22941">
        <ele>138</ele>
        <time>2020-12-12T00:11:09Z</time>
      </trkpt>
      <trkpt lat="44.07711" lon="0.22912">
        <ele>138</ele>
        <time>2020-12-12T00:11:39Z</time>
      </trkpt>
      <trkpt lat="44.07749" lon="0.22829">
        <ele>142</ele>
        <time>2020-12-12T00:13:14Z</time>
      </trkpt>
      <trkpt lat="44.07778" lon="0.22709">
        <ele>140</ele>
        <time>2020-12-12T00:15:15Z</time>
      </trkpt>
      <trkpt lat="44.07866" lon="0.22487">
        <ele>145</ele>
        <time>2020-12-12T00:19:18Z</time>
      </trkpt>
      <trkpt lat="44.07923" lon="0.22282">
        <ele>138</ele>
        <time>2020-12-12T00:22:49Z</time>
      </trkpt>
      <trkpt lat="44.0807" lon="0.22096">
        <ele>142</ele>
        <time>2020-12-12T00:27:14Z</time>
      </trkpt>
      <trkpt lat="44.07887" lon="0.21935">
        <ele>124</ele>
        <time>2020-12-12T00:32:03Z</time>
      </trkpt>
      <trkpt lat="44.07682" lon="0.21776">
        <ele>115</ele>
        <time>2020-12-12T00:37:16Z</time>
      </trkpt>
      <trkpt lat="44.07558" lon="0.21639">
        <ele>99</ele>
        <time>2020-12-12T00:40:47Z</time>
      </trkpt>
      <trkpt lat="44.07616" lon="0.21553">
        <ele>98</ele>
        <time>2020-12-12T00:42:40Z</time>
      </trkpt>
      <trkpt lat="44.07591" lon="0.21461">
        <ele>96</ele>
        <time>2020-12-12T00:44:15Z</time>
      </trkpt>
      <trkpt lat="44.07461" lon="0.21482">
        <ele>97</ele>
        <time>2020-12-12T00:47:09Z</time>
      </trkpt>
      <trkpt lat="44.07322" lon="0.21502">
        <ele>87</ele>
        <time>2020-12-12T00:50:16Z</time>
      </trkpt>
      <trkpt lat="44.07244" lon="0.21558">
        <ele>82</ele>
        <time>2020-12-12T00:52:13Z</time>
      </trkpt>
      <trkpt lat="44.07301" lon="0.21118">
        <ele>95</ele>
        <time>2020-12-12T00:59:22Z</time>
      </trkpt>
    </trkseg>
  </trk>
</gpx>